createdAt,value
2018-10-16T00:00:04.713Z,1026.68516199
2018-10-16T00:00:17.171Z,1026.68516199
2018-10-16T00:00:29.600Z,1026.68516199
2018-10-16T00:00:42.003Z,1026.68516199
2018-10-16T00:00:54.452Z,1026.68516199
2018-10-16T00:01:06.870Z,1026.71902587
2018-10-16T00:01:19.271Z,1026.71902587
2018-10-16T00:01:31.688Z,1026.71902587
2018-10-16T00:01:44.159Z,1026.71902587
2018-10-16T00:01:56.580Z,1026.71902587
2018-10-16T00:02:09.001Z,1026.78675363
2018-10-16T00:02:21.395Z,1026.78675363
2018-10-16T00:02:33.802Z,1026.78675363
2018-10-16T00:02:46.206Z,1026.78675363
2018-10-16T00:02:58.928Z,1026.78675363
2018-10-16T00:03:12.821Z,1026.78675363
2018-10-16T00:03:26.017Z,1026.78675363
2018-10-16T00:03:38.488Z,1026.78675363
2018-10-16T00:03:50.874Z,1026.78675363
2018-10-16T00:04:03.260Z,1026.78675363
2018-10-16T00:04:15.717Z,1026.78675363
2018-10-16T00:04:28.099Z,1026.78675363
2018-10-16T00:04:40.529Z,1026.78675363
2018-10-16T00:04:52.944Z,1026.78675363
2018-10-16T00:05:05.333Z,1026.75288975
2018-10-16T00:05:17.757Z,1026.75288975
2018-10-16T00:05:30.207Z,1026.75288975
2018-10-16T00:05:42.598Z,1026.75288975
2018-10-16T00:05:54.991Z,1026.75288975
2018-10-16T00:06:07.409Z,1026.78675363
2018-10-16T00:06:20.148Z,1026.78675363
2018-10-16T00:06:32.696Z,1026.78675363
2018-10-16T00:06:45.102Z,1026.78675363
2018-10-16T00:06:57.515Z,1026.78675363
2018-10-16T00:07:09.921Z,1026.78675363
2018-10-16T00:07:22.333Z,1026.78675363
2018-10-16T00:07:34.748Z,1026.78675363
2018-10-16T00:07:47.162Z,1026.78675363
2018-10-16T00:07:59.545Z,1026.78675363
2018-10-16T00:08:11.949Z,1026.78675363
2018-10-16T00:08:24.352Z,1026.78675363
2018-10-16T00:08:36.726Z,1026.78675363
2018-10-16T00:08:49.185Z,1026.78675363
2018-10-16T00:09:01.721Z,1026.75288975
2018-10-16T00:09:14.106Z,1026.75288975
2018-10-16T00:09:26.487Z,1026.75288975
2018-10-16T00:09:38.878Z,1026.75288975
2018-10-16T00:09:51.273Z,1026.75288975
2018-10-16T00:10:03.828Z,1026.71902587
2018-10-16T00:10:16.214Z,1026.71902587
2018-10-16T00:10:28.591Z,1026.71902587
2018-10-16T00:10:40.999Z,1026.71902587
2018-10-16T00:10:53.395Z,1026.71902587
2018-10-16T00:11:05.941Z,1026.71902587
2018-10-16T00:11:18.353Z,1026.71902587
2018-10-16T00:11:30.750Z,1026.71902587
2018-10-16T00:11:43.262Z,1026.71902587
2018-10-16T00:11:55.667Z,1026.71902587
2018-10-16T00:12:08.067Z,1026.78675363
2018-10-16T00:12:20.455Z,1026.78675363
2018-10-16T00:12:33.024Z,1026.78675363
2018-10-16T00:12:45.557Z,1026.78675363
2018-10-16T00:12:57.949Z,1026.78675363
2018-10-16T00:13:10.343Z,1026.78675363
2018-10-16T00:13:22.762Z,1026.78675363
2018-10-16T00:13:35.154Z,1026.78675363
2018-10-16T00:13:47.560Z,1026.78675363
2018-10-16T00:13:59.953Z,1026.82061752
2018-10-16T00:14:12.341Z,1026.82061752
2018-10-16T00:14:24.722Z,1026.82061752
2018-10-16T00:14:37.135Z,1026.82061752
2018-10-16T00:14:49.537Z,1026.82061752
2018-10-16T00:15:01.931Z,1026.78675363
2018-10-16T00:15:14.370Z,1026.78675363
2018-10-16T00:15:26.782Z,1026.78675363
2018-10-16T00:15:39.196Z,1026.78675363
2018-10-16T00:15:51.648Z,1026.78675363
2018-10-16T00:16:04.144Z,1026.71902587
2018-10-16T00:16:16.672Z,1026.71902587
2018-10-16T00:16:29.067Z,1026.71902587
2018-10-16T00:16:41.462Z,1026.71902587
2018-10-16T00:16:53.847Z,1026.71902587
2018-10-16T00:17:06.230Z,1026.75288975
2018-10-16T00:17:18.694Z,1026.75288975
2018-10-16T00:17:31.242Z,1026.75288975
2018-10-16T00:17:43.663Z,1026.75288975
2018-10-16T00:17:56.062Z,1026.75288975
2018-10-16T00:18:08.583Z,1026.88834528
2018-10-16T00:18:20.992Z,1026.88834528
2018-10-16T00:18:33.392Z,1026.88834528
2018-10-16T00:18:45.846Z,1026.88834528
2018-10-16T00:18:58.295Z,1026.88834528
2018-10-16T00:19:10.687Z,1026.82061752
2018-10-16T00:19:23.119Z,1026.82061752
2018-10-16T00:19:35.511Z,1026.82061752
2018-10-16T00:19:47.904Z,1026.82061752
2018-10-16T00:20:00.296Z,1026.82061752
2018-10-16T00:20:12.710Z,1026.82061752
2018-10-16T00:20:25.104Z,1026.82061752
2018-10-16T00:20:37.548Z,1026.82061752
2018-10-16T00:20:49.947Z,1026.82061752
2018-10-16T00:21:02.339Z,1026.88834528
2018-10-16T00:21:14.748Z,1026.88834528
2018-10-16T00:21:27.167Z,1026.88834528
2018-10-16T00:21:39.558Z,1026.88834528
2018-10-16T00:21:51.958Z,1026.88834528
2018-10-16T00:22:04.428Z,1026.78675363
2018-10-16T00:22:16.916Z,1026.78675363
2018-10-16T00:22:29.314Z,1026.78675363
2018-10-16T00:22:41.719Z,1026.78675363
2018-10-16T00:22:54.124Z,1026.78675363
2018-10-16T00:23:06.557Z,1026.95607304
2018-10-16T00:23:18.938Z,1026.95607304
2018-10-16T00:23:31.336Z,1026.95607304
2018-10-16T00:23:43.732Z,1026.95607304
2018-10-16T00:23:56.129Z,1026.95607304
2018-10-16T00:24:08.526Z,1026.88834528
2018-10-16T00:24:21.054Z,1026.88834528
2018-10-16T00:24:33.464Z,1026.88834528
2018-10-16T00:24:45.852Z,1026.88834528
2018-10-16T00:24:58.466Z,1026.88834528
2018-10-16T00:25:11.018Z,1026.82061752
2018-10-16T00:25:23.423Z,1026.82061752
2018-10-16T00:25:35.844Z,1026.82061752
2018-10-16T00:25:48.296Z,1026.82061752
2018-10-16T00:26:00.693Z,1026.8544814
2018-10-16T00:26:13.125Z,1026.8544814
2018-10-16T00:26:25.507Z,1026.8544814
2018-10-16T00:26:37.903Z,1026.8544814
2018-10-16T00:26:50.297Z,1026.8544814
2018-10-16T00:27:02.751Z,1026.88834528
2018-10-16T00:27:15.156Z,1026.88834528
2018-10-16T00:27:27.560Z,1026.88834528
2018-10-16T00:27:39.946Z,1026.88834528
2018-10-16T00:27:52.370Z,1026.88834528
2018-10-16T00:28:04.778Z,1026.78675363
2018-10-16T00:28:17.180Z,1026.78675363
2018-10-16T00:28:29.560Z,1026.78675363
2018-10-16T00:28:41.939Z,1026.78675363
2018-10-16T00:28:54.342Z,1026.78675363
2018-10-16T00:29:06.733Z,1026.82061752
2018-10-16T00:29:19.187Z,1026.82061752
2018-10-16T00:29:31.591Z,1026.82061752
2018-10-16T00:29:43.992Z,1026.82061752
2018-10-16T00:29:56.384Z,1026.82061752
2018-10-16T00:30:08.821Z,1026.78675363
2018-10-16T00:30:21.256Z,1026.78675363
2018-10-16T00:30:33.656Z,1026.78675363
2018-10-16T00:30:46.058Z,1026.78675363
2018-10-16T00:30:58.462Z,1026.78675363
2018-10-16T00:31:11.128Z,1026.82061752
2018-10-16T00:31:23.536Z,1026.82061752
2018-10-16T00:31:35.925Z,1026.82061752
2018-10-16T00:31:48.309Z,1026.82061752
2018-10-16T00:32:00.723Z,1026.82061752
2018-10-16T00:32:13.123Z,1026.82061752
2018-10-16T00:32:25.610Z,1026.82061752
2018-10-16T00:32:38.920Z,1026.82061752
2018-10-16T00:32:52.560Z,1026.82061752
2018-10-16T00:33:04.962Z,1026.75288975
2018-10-16T00:33:17.379Z,1026.75288975
2018-10-16T00:33:29.792Z,1026.75288975
2018-10-16T00:33:42.190Z,1026.75288975
2018-10-16T00:33:54.616Z,1026.75288975
2018-10-16T00:34:07.019Z,1026.75288975
2018-10-16T00:34:19.411Z,1026.75288975
2018-10-16T00:34:31.840Z,1026.75288975
2018-10-16T00:34:44.265Z,1026.75288975
2018-10-16T00:34:56.743Z,1026.75288975
2018-10-16T00:35:09.158Z,1026.82061752
2018-10-16T00:35:21.550Z,1026.82061752
2018-10-16T00:35:33.962Z,1026.82061752
2018-10-16T00:35:46.382Z,1026.82061752
2018-10-16T00:35:58.784Z,1026.78675363
2018-10-16T00:36:11.655Z,1026.78675363
2018-10-16T00:36:24.198Z,1026.78675363
2018-10-16T00:36:36.607Z,1026.78675363
2018-10-16T00:36:48.982Z,1026.78675363
2018-10-16T00:37:01.386Z,1026.75288975
2018-10-16T00:37:13.797Z,1026.75288975
2018-10-16T00:37:26.188Z,1026.75288975
2018-10-16T00:37:38.602Z,1026.75288975
2018-10-16T00:37:51.142Z,1026.75288975
2018-10-16T00:38:03.542Z,1026.75288975
2018-10-16T00:38:15.955Z,1026.75288975
2018-10-16T00:38:28.377Z,1026.75288975
2018-10-16T00:38:40.771Z,1026.75288975
2018-10-16T00:38:53.209Z,1026.75288975
2018-10-16T00:39:05.628Z,1026.71902587
2018-10-16T00:39:18.068Z,1026.71902587
2018-10-16T00:39:30.465Z,1026.71902587
2018-10-16T00:39:42.996Z,1026.71902587
2018-10-16T00:39:55.481Z,1026.71902587
2018-10-16T00:40:07.896Z,1026.75288975
2018-10-16T00:40:20.336Z,1026.75288975
2018-10-16T00:40:32.754Z,1026.75288975
2018-10-16T00:40:45.276Z,1026.75288975
2018-10-16T00:40:57.670Z,1026.75288975
2018-10-16T00:41:10.068Z,1026.75288975
2018-10-16T00:41:22.461Z,1026.75288975
2018-10-16T00:41:34.860Z,1026.75288975
2018-10-16T00:41:47.274Z,1026.75288975
2018-10-16T00:41:59.703Z,1026.78675363
2018-10-16T00:42:12.118Z,1026.78675363
2018-10-16T00:42:24.498Z,1026.78675363
2018-10-16T00:42:36.899Z,1026.78675363
2018-10-16T00:42:49.333Z,1026.78675363
2018-10-16T00:43:01.770Z,1026.88834528
2018-10-16T00:43:14.154Z,1026.88834528
2018-10-16T00:43:26.551Z,1026.88834528
2018-10-16T00:43:38.946Z,1026.88834528
2018-10-16T00:43:51.349Z,1026.88834528
2018-10-16T00:44:03.749Z,1026.75288975
2018-10-16T00:44:16.279Z,1026.75288975
2018-10-16T00:44:28.697Z,1026.75288975
2018-10-16T00:44:41.094Z,1026.75288975
2018-10-16T00:44:53.484Z,1026.75288975
2018-10-16T00:45:05.963Z,1026.88834528
2018-10-16T00:45:18.363Z,1026.88834528
2018-10-16T00:45:30.771Z,1026.88834528
2018-10-16T00:45:43.163Z,1026.88834528
2018-10-16T00:45:55.580Z,1026.88834528
2018-10-16T00:46:07.977Z,1026.75288975
2018-10-16T00:46:20.482Z,1026.75288975
2018-10-16T00:46:32.892Z,1026.75288975
2018-10-16T00:46:45.329Z,1026.75288975
2018-10-16T00:46:57.718Z,1026.75288975
2018-10-16T00:47:10.097Z,1026.78675363
2018-10-16T00:47:22.497Z,1026.78675363
2018-10-16T00:47:34.891Z,1026.78675363
2018-10-16T00:47:47.274Z,1026.78675363
2018-10-16T00:47:59.663Z,1026.82061752
2018-10-16T00:48:12.126Z,1026.82061752
2018-10-16T00:48:24.591Z,1026.82061752
2018-10-16T00:48:37.116Z,1026.82061752
2018-10-16T00:48:49.521Z,1026.82061752
2018-10-16T00:49:01.950Z,1026.82061752
2018-10-16T00:49:14.335Z,1026.82061752
2018-10-16T00:49:26.717Z,1026.82061752
2018-10-16T00:49:39.255Z,1026.82061752
2018-10-16T00:49:51.705Z,1026.82061752
2018-10-16T00:50:04.106Z,1026.78675363
2018-10-16T00:50:16.488Z,1026.78675363
2018-10-16T00:50:28.907Z,1026.78675363
2018-10-16T00:50:41.327Z,1026.78675363
2018-10-16T00:50:53.730Z,1026.78675363
2018-10-16T00:51:06.178Z,1026.8544814
2018-10-16T00:51:18.594Z,1026.8544814
2018-10-16T00:51:31.013Z,1026.8544814
2018-10-16T00:51:43.439Z,1026.8544814
2018-10-16T00:51:55.826Z,1026.8544814
2018-10-16T00:52:08.236Z,1026.92220916
2018-10-16T00:52:20.645Z,1026.92220916
2018-10-16T00:52:33.140Z,1026.92220916
2018-10-16T00:52:45.559Z,1026.92220916
2018-10-16T00:52:58.074Z,1026.92220916
2018-10-16T00:53:10.472Z,1026.92220916
2018-10-16T00:53:22.861Z,1026.92220916
2018-10-16T00:53:35.257Z,1026.92220916
2018-10-16T00:53:47.654Z,1026.92220916
2018-10-16T00:54:00.039Z,1026.88834528
2018-10-16T00:54:12.435Z,1026.88834528
2018-10-16T00:54:24.813Z,1026.88834528
2018-10-16T00:54:37.208Z,1026.88834528
2018-10-16T00:54:49.896Z,1026.88834528
2018-10-16T00:55:03.750Z,1026.8544814
2018-10-16T00:55:16.408Z,1026.8544814
2018-10-16T00:55:28.815Z,1026.8544814
2018-10-16T00:55:41.221Z,1026.8544814
2018-10-16T00:55:53.632Z,1026.8544814
2018-10-16T00:56:06.021Z,1026.8544814
2018-10-16T00:56:18.421Z,1026.8544814
2018-10-16T00:56:30.829Z,1026.8544814
2018-10-16T00:56:43.227Z,1026.8544814
2018-10-16T00:56:55.627Z,1026.8544814
2018-10-16T00:57:08.064Z,1026.88834528
2018-10-16T00:57:20.452Z,1026.88834528
2018-10-16T00:57:33.015Z,1026.88834528
2018-10-16T00:57:45.410Z,1026.88834528
2018-10-16T00:57:57.816Z,1026.88834528
2018-10-16T00:58:10.224Z,1026.95607304
2018-10-16T00:58:22.622Z,1026.95607304
2018-10-16T00:58:35.037Z,1026.95607304
2018-10-16T00:58:47.429Z,1026.95607304
2018-10-16T00:58:59.827Z,1026.78675363
2018-10-16T00:59:12.225Z,1026.78675363
2018-10-16T00:59:24.643Z,1026.78675363
2018-10-16T00:59:37.039Z,1026.78675363
2018-10-16T00:59:49.446Z,1026.78675363
2018-10-16T01:00:01.878Z,1026.92220916
2018-10-16T01:00:14.317Z,1026.92220916
2018-10-16T01:00:26.746Z,1026.92220916
2018-10-16T01:00:39.160Z,1026.92220916
2018-10-16T01:00:51.594Z,1026.92220916
2018-10-16T01:01:04.035Z,1026.92220916
2018-10-16T01:01:16.570Z,1026.92220916
2018-10-16T01:01:28.984Z,1026.92220916
2018-10-16T01:01:41.376Z,1026.92220916
2018-10-16T01:01:53.778Z,1026.92220916
2018-10-16T01:02:06.180Z,1026.92220916
2018-10-16T01:02:18.585Z,1026.92220916
2018-10-16T01:02:31.001Z,1026.92220916
2018-10-16T01:02:43.410Z,1026.92220916
2018-10-16T01:02:55.841Z,1026.92220916
2018-10-16T01:03:08.251Z,1026.88834528
2018-10-16T01:03:20.654Z,1026.88834528
2018-10-16T01:03:33.056Z,1026.88834528
2018-10-16T01:03:45.477Z,1026.88834528
2018-10-16T01:03:57.874Z,1026.88834528
2018-10-16T01:04:10.368Z,1026.95607304
2018-10-16T01:04:22.763Z,1026.95607304
2018-10-16T01:04:35.155Z,1026.95607304
2018-10-16T01:04:47.565Z,1026.95607304
2018-10-16T01:04:59.998Z,1026.98993692
2018-10-16T01:05:12.450Z,1026.98993692
2018-10-16T01:05:24.962Z,1026.98993692
2018-10-16T01:05:37.379Z,1026.98993692
2018-10-16T01:05:49.794Z,1026.98993692
2018-10-16T01:06:02.178Z,1026.98993692
2018-10-16T01:06:14.589Z,1026.98993692
2018-10-16T01:06:27.001Z,1026.98993692
2018-10-16T01:06:39.601Z,1026.98993692
2018-10-16T01:06:52.026Z,1026.98993692
2018-10-16T01:07:04.419Z,1026.8544814
2018-10-16T01:07:16.820Z,1026.8544814
2018-10-16T01:07:29.235Z,1026.8544814
2018-10-16T01:07:41.640Z,1026.8544814
2018-10-16T01:07:54.079Z,1026.8544814
2018-10-16T01:08:06.539Z,1026.88834528
2018-10-16T01:08:19.027Z,1026.88834528
2018-10-16T01:08:31.437Z,1026.88834528
2018-10-16T01:08:43.933Z,1026.88834528
2018-10-16T01:08:56.454Z,1026.88834528
2018-10-16T01:09:08.869Z,1026.92220916
2018-10-16T01:09:21.277Z,1026.92220916
2018-10-16T01:09:33.675Z,1026.92220916
2018-10-16T01:09:46.079Z,1026.92220916
2018-10-16T01:09:58.466Z,1026.92220916
2018-10-16T01:10:10.978Z,1026.8544814
2018-10-16T01:10:23.521Z,1026.8544814
2018-10-16T01:10:35.912Z,1026.8544814
2018-10-16T01:10:48.320Z,1026.8544814
2018-10-16T01:11:00.703Z,1026.8544814
2018-10-16T01:11:13.214Z,1026.8544814
2018-10-16T01:11:25.642Z,1026.8544814
2018-10-16T01:11:38.190Z,1026.8544814
2018-10-16T01:11:50.594Z,1026.8544814
2018-10-16T01:12:03.004Z,1026.8544814
2018-10-16T01:12:15.434Z,1026.8544814
2018-10-16T01:12:27.823Z,1026.8544814
2018-10-16T01:12:40.292Z,1026.8544814
2018-10-16T01:12:52.775Z,1026.8544814
2018-10-16T01:13:05.189Z,1026.8544814
2018-10-16T01:13:18.100Z,1026.8544814
2018-10-16T01:13:30.560Z,1026.8544814
2018-10-16T01:13:42.947Z,1026.8544814
2018-10-16T01:13:55.369Z,1026.8544814
2018-10-16T01:14:07.777Z,1026.75288975
2018-10-16T01:14:20.173Z,1026.75288975
2018-10-16T01:14:32.567Z,1026.75288975
2018-10-16T01:14:44.975Z,1026.75288975
2018-10-16T01:14:57.369Z,1026.75288975
2018-10-16T01:15:09.790Z,1026.78675363
2018-10-16T01:15:22.199Z,1026.78675363
2018-10-16T01:15:34.619Z,1026.78675363
2018-10-16T01:15:47.029Z,1026.78675363
2018-10-16T01:15:59.443Z,1026.82061752
2018-10-16T01:16:12.005Z,1026.82061752
2018-10-16T01:16:24.400Z,1026.82061752
2018-10-16T01:16:36.818Z,1026.82061752
2018-10-16T01:16:49.200Z,1026.82061752
2018-10-16T01:17:01.694Z,1026.75288975
2018-10-16T01:17:14.115Z,1026.75288975
2018-10-16T01:17:26.527Z,1026.75288975
2018-10-16T01:17:39.709Z,1026.75288975
2018-10-16T01:17:52.130Z,1026.75288975
2018-10-16T01:18:04.540Z,1026.68516199
2018-10-16T01:18:17.133Z,1026.68516199
2018-10-16T01:18:29.543Z,1026.68516199
2018-10-16T01:18:42.015Z,1026.68516199
2018-10-16T01:18:54.430Z,1026.68516199
2018-10-16T01:19:06.847Z,1026.75288975
2018-10-16T01:19:19.252Z,1026.75288975
2018-10-16T01:19:31.640Z,1026.75288975
2018-10-16T01:19:44.206Z,1026.75288975
2018-10-16T01:19:56.614Z,1026.75288975
2018-10-16T01:20:09.020Z,1026.8544814
2018-10-16T01:20:21.455Z,1026.8544814
2018-10-16T01:20:33.845Z,1026.8544814
2018-10-16T01:20:46.253Z,1026.8544814
2018-10-16T01:20:58.653Z,1026.8544814
2018-10-16T01:21:11.058Z,1026.8544814
2018-10-16T01:21:23.464Z,1026.8544814
2018-10-16T01:21:35.862Z,1026.8544814
2018-10-16T01:21:48.253Z,1026.8544814
2018-10-16T01:22:00.646Z,1026.8544814
2018-10-16T01:22:13.196Z,1026.8544814
2018-10-16T01:22:25.697Z,1026.8544814
2018-10-16T01:22:38.082Z,1026.8544814
2018-10-16T01:22:50.499Z,1026.8544814
2018-10-16T01:23:02.905Z,1026.88834528
2018-10-16T01:23:15.337Z,1026.88834528
2018-10-16T01:23:27.734Z,1026.88834528
2018-10-16T01:23:40.131Z,1026.88834528
2018-10-16T01:23:52.520Z,1026.88834528
2018-10-16T01:24:04.930Z,1026.8544814
2018-10-16T01:24:17.328Z,1026.8544814
2018-10-16T01:24:29.831Z,1026.8544814
2018-10-16T01:24:42.245Z,1026.8544814
2018-10-16T01:24:54.716Z,1026.8544814
2018-10-16T01:25:07.181Z,1026.88834528
2018-10-16T01:25:19.704Z,1026.88834528
2018-10-16T01:25:32.250Z,1026.88834528
2018-10-16T01:25:44.673Z,1026.88834528
2018-10-16T01:25:57.146Z,1026.88834528
2018-10-16T01:26:09.548Z,1026.82061752
2018-10-16T01:26:21.961Z,1026.82061752
2018-10-16T01:26:34.374Z,1026.82061752
2018-10-16T01:26:46.791Z,1026.82061752
2018-10-16T01:26:59.201Z,1026.8544814
2018-10-16T01:27:11.611Z,1026.8544814
2018-10-16T01:27:24.003Z,1026.8544814
2018-10-16T01:27:36.393Z,1026.8544814
2018-10-16T01:27:48.862Z,1026.8544814
2018-10-16T01:28:01.286Z,1026.82061752
2018-10-16T01:28:13.696Z,1026.82061752
2018-10-16T01:28:26.100Z,1026.82061752
2018-10-16T01:28:38.497Z,1026.82061752
2018-10-16T01:28:50.949Z,1026.82061752
2018-10-16T01:29:03.352Z,1026.88834528
2018-10-16T01:29:15.757Z,1026.88834528
2018-10-16T01:29:28.212Z,1026.88834528
2018-10-16T01:29:40.642Z,1026.88834528
2018-10-16T01:29:53.068Z,1026.88834528
2018-10-16T01:30:05.476Z,1026.92220916
2018-10-16T01:30:18.103Z,1026.92220916
2018-10-16T01:30:30.529Z,1026.92220916
2018-10-16T01:30:42.944Z,1026.92220916
2018-10-16T01:30:55.343Z,1026.92220916
2018-10-16T01:31:07.741Z,1026.8544814
2018-10-16T01:31:20.132Z,1026.8544814
2018-10-16T01:31:32.536Z,1026.8544814
2018-10-16T01:31:45.047Z,1026.8544814
2018-10-16T01:31:57.465Z,1026.8544814
2018-10-16T01:32:09.905Z,1026.82061752
2018-10-16T01:32:22.308Z,1026.82061752
2018-10-16T01:32:34.703Z,1026.82061752
2018-10-16T01:32:47.259Z,1026.82061752
2018-10-16T01:32:59.690Z,1026.8544814
2018-10-16T01:33:12.110Z,1026.8544814
2018-10-16T01:33:24.526Z,1026.8544814
2018-10-16T01:33:36.930Z,1026.8544814
2018-10-16T01:33:49.330Z,1026.8544814
2018-10-16T01:34:01.728Z,1026.82061752
2018-10-16T01:34:14.134Z,1026.82061752
2018-10-16T01:34:26.563Z,1026.82061752
2018-10-16T01:34:38.966Z,1026.82061752
2018-10-16T01:34:51.378Z,1026.82061752
2018-10-16T01:35:03.779Z,1026.78675363
2018-10-16T01:35:16.235Z,1026.78675363
2018-10-16T01:35:28.638Z,1026.78675363
2018-10-16T01:35:41.024Z,1026.78675363
2018-10-16T01:35:53.427Z,1026.78675363
2018-10-16T01:36:05.850Z,1026.75288975
2018-10-16T01:36:18.359Z,1026.75288975
2018-10-16T01:36:30.818Z,1026.75288975
2018-10-16T01:36:43.355Z,1026.75288975
2018-10-16T01:36:55.790Z,1026.75288975
2018-10-16T01:37:08.196Z,1026.68516199
2018-10-16T01:37:20.648Z,1026.68516199
2018-10-16T01:37:33.032Z,1026.68516199
2018-10-16T01:37:45.614Z,1026.68516199
2018-10-16T01:37:58.001Z,1026.68516199
2018-10-16T01:38:10.422Z,1026.61743423
2018-10-16T01:38:22.839Z,1026.61743423
2018-10-16T01:38:35.245Z,1026.61743423
2018-10-16T01:38:47.644Z,1026.61743423
2018-10-16T01:39:00.056Z,1026.68516199
2018-10-16T01:39:12.451Z,1026.68516199
2018-10-16T01:39:24.858Z,1026.68516199
2018-10-16T01:39:37.363Z,1026.68516199
2018-10-16T01:39:49.753Z,1026.68516199
2018-10-16T01:40:02.164Z,1026.71902587
2018-10-16T01:40:14.581Z,1026.71902587
2018-10-16T01:40:26.955Z,1026.71902587
2018-10-16T01:40:39.422Z,1026.71902587
2018-10-16T01:40:51.818Z,1026.71902587
2018-10-16T01:41:04.220Z,1026.71902587
2018-10-16T01:41:16.619Z,1026.71902587
2018-10-16T01:41:29.158Z,1026.71902587
2018-10-16T01:41:41.550Z,1026.71902587
2018-10-16T01:41:53.931Z,1026.71902587
2018-10-16T01:42:06.345Z,1026.65129811
2018-10-16T01:42:18.760Z,1026.65129811
2018-10-16T01:42:31.150Z,1026.65129811
2018-10-16T01:42:43.677Z,1026.65129811
2018-10-16T01:42:56.143Z,1026.65129811
2018-10-16T01:43:08.645Z,1026.71902587
2018-10-16T01:43:21.114Z,1026.71902587
2018-10-16T01:43:33.569Z,1026.71902587
2018-10-16T01:43:46.046Z,1026.71902587
2018-10-16T01:43:58.451Z,1026.71902587
2018-10-16T01:44:10.851Z,1026.78675363
2018-10-16T01:44:23.250Z,1026.78675363
2018-10-16T01:44:35.642Z,1026.78675363
2018-10-16T01:44:48.072Z,1026.78675363
2018-10-16T01:45:00.482Z,1026.78675363
2018-10-16T01:45:12.888Z,1026.78675363
2018-10-16T01:45:25.298Z,1026.78675363
2018-10-16T01:45:37.725Z,1026.78675363
2018-10-16T01:45:50.201Z,1026.78675363
2018-10-16T01:46:02.622Z,1026.78675363
2018-10-16T01:46:15.034Z,1026.78675363
2018-10-16T01:46:27.484Z,1026.78675363
2018-10-16T01:46:39.876Z,1026.78675363
2018-10-16T01:46:52.346Z,1026.78675363
2018-10-16T01:47:04.753Z,1026.8544814
2018-10-16T01:47:17.177Z,1026.8544814
2018-10-16T01:47:29.571Z,1026.8544814
2018-10-16T01:47:42.566Z,1026.8544814
2018-10-16T01:47:54.972Z,1026.8544814
2018-10-16T01:48:07.379Z,1026.78675363
2018-10-16T01:48:19.782Z,1026.78675363
2018-10-16T01:48:32.177Z,1026.78675363
2018-10-16T01:48:44.569Z,1026.78675363
2018-10-16T01:48:56.979Z,1026.78675363
2018-10-16T01:49:09.402Z,1026.78675363
2018-10-16T01:49:21.804Z,1026.78675363
2018-10-16T01:49:34.331Z,1026.78675363
2018-10-16T01:49:46.740Z,1026.78675363
2018-10-16T01:49:59.123Z,1026.78675363
2018-10-16T01:50:11.501Z,1026.78675363
2018-10-16T01:50:23.901Z,1026.78675363
2018-10-16T01:50:36.299Z,1026.78675363
2018-10-16T01:50:48.717Z,1026.78675363
2018-10-16T01:51:01.126Z,1026.78675363
2018-10-16T01:51:13.529Z,1026.78675363
2018-10-16T01:51:25.920Z,1026.78675363
2018-10-16T01:51:38.323Z,1026.78675363
2018-10-16T01:51:50.735Z,1026.78675363
2018-10-16T01:52:03.159Z,1026.8544814
2018-10-16T01:52:15.590Z,1026.8544814
2018-10-16T01:52:27.995Z,1026.8544814
2018-10-16T01:52:40.393Z,1026.8544814
2018-10-16T01:52:52.789Z,1026.8544814
2018-10-16T01:53:05.186Z,1026.88834528
2018-10-16T01:53:17.594Z,1026.88834528
2018-10-16T01:53:30.011Z,1026.88834528
2018-10-16T01:53:42.428Z,1026.88834528
2018-10-16T01:53:54.844Z,1026.88834528
2018-10-16T01:54:07.244Z,1026.82061752
2018-10-16T01:54:19.635Z,1026.82061752
2018-10-16T01:54:32.034Z,1026.82061752
2018-10-16T01:54:44.481Z,1026.82061752
2018-10-16T01:54:56.892Z,1026.82061752
2018-10-16T01:55:09.308Z,1026.88834528
2018-10-16T01:55:21.728Z,1026.88834528
2018-10-16T01:55:34.141Z,1026.88834528
2018-10-16T01:55:46.537Z,1026.88834528
2018-10-16T01:55:58.948Z,1026.92220916
2018-10-16T01:56:11.353Z,1026.92220916
2018-10-16T01:56:23.773Z,1026.92220916
2018-10-16T01:56:36.165Z,1026.92220916
2018-10-16T01:56:48.566Z,1026.92220916
2018-10-16T01:57:00.944Z,1026.88834528
2018-10-16T01:57:13.337Z,1026.88834528
2018-10-16T01:57:25.939Z,1026.88834528
2018-10-16T01:57:38.330Z,1026.88834528
2018-10-16T01:57:50.729Z,1026.88834528
2018-10-16T01:58:03.216Z,1026.8544814
2018-10-16T01:58:15.631Z,1026.8544814
2018-10-16T01:58:28.046Z,1026.8544814
2018-10-16T01:58:40.434Z,1026.8544814
2018-10-16T01:58:52.841Z,1026.8544814
2018-10-16T01:59:05.250Z,1026.98993692
2018-10-16T01:59:17.663Z,1026.98993692
2018-10-16T01:59:30.057Z,1026.98993692
2018-10-16T01:59:42.459Z,1026.98993692
2018-10-16T01:59:54.882Z,1026.98993692
2018-10-16T02:00:07.306Z,1026.88834528
2018-10-16T02:00:19.779Z,1026.88834528
2018-10-16T02:00:32.281Z,1026.88834528
2018-10-16T02:00:44.742Z,1026.88834528
2018-10-16T02:00:57.185Z,1026.88834528
2018-10-16T02:01:09.649Z,1026.82061752
2018-10-16T02:01:22.071Z,1026.82061752
2018-10-16T02:01:34.510Z,1026.82061752
2018-10-16T02:01:46.931Z,1026.82061752
2018-10-16T02:01:59.367Z,1026.8544814
2018-10-16T02:02:11.765Z,1026.8544814
2018-10-16T02:02:24.372Z,1026.8544814
2018-10-16T02:02:37.527Z,1026.8544814
2018-10-16T02:02:51.111Z,1026.8544814
2018-10-16T02:03:03.536Z,1026.71902587
2018-10-16T02:03:15.953Z,1026.71902587
2018-10-16T02:03:28.401Z,1026.71902587
2018-10-16T02:03:40.822Z,1026.71902587
2018-10-16T02:03:53.235Z,1026.71902587
2018-10-16T02:04:05.793Z,1026.78675363
2018-10-16T02:04:18.212Z,1026.78675363
2018-10-16T02:04:30.614Z,1026.78675363
2018-10-16T02:04:43.022Z,1026.78675363
2018-10-16T02:04:55.438Z,1026.78675363
2018-10-16T02:05:07.850Z,1026.71902587
2018-10-16T02:05:20.470Z,1026.71902587
2018-10-16T02:05:32.901Z,1026.71902587
2018-10-16T02:05:45.296Z,1026.71902587
2018-10-16T02:05:57.714Z,1026.71902587
2018-10-16T02:06:10.141Z,1026.75288975
2018-10-16T02:06:22.542Z,1026.75288975
2018-10-16T02:06:34.995Z,1026.75288975
2018-10-16T02:06:47.657Z,1026.75288975
2018-10-16T02:07:00.064Z,1026.82061752
2018-10-16T02:07:12.480Z,1026.82061752
2018-10-16T02:07:24.917Z,1026.82061752
2018-10-16T02:07:37.328Z,1026.82061752
2018-10-16T02:07:49.738Z,1026.82061752